createdAt,value
2023-11-12T00:01:00.189Z,6.9
2023-11-12T00:01:58.931Z,6.9
2023-11-12T00:02:59.710Z,6.9
2023-11-12T00:04:01.011Z,6.9
2023-11-12T00:04:59.819Z,6.9
2023-11-12T00:06:00.987Z,6.9
2023-11-12T00:06:59.647Z,6.9
2023-11-12T00:08:00.307Z,6.9
2023-11-12T00:08:58.978Z,6.9
2023-11-12T00:09:59.643Z,6.8
2023-11-12T00:11:00.321Z,6.9
2023-11-12T00:11:58.991Z,6.9
2023-11-12T00:12:59.706Z,6.8
2023-11-12T00:14:00.452Z,6.8
2023-11-12T00:14:59.210Z,6.9
2023-11-12T00:16:00.027Z,6.9
2023-11-12T00:17:01.690Z,6.8
2023-11-12T00:18:00.346Z,6.8
2023-11-12T00:18:59.122Z,6.8
2023-11-12T00:19:59.860Z,6.9
2023-11-12T00:21:00.977Z,6.9
2023-11-12T00:22:04.971Z,6.8
2023-11-12T00:22:59.802Z,6.8
2023-11-12T00:24:01.247Z,6.8
2023-11-12T00:24:59.975Z,6.8
2023-11-12T00:25:58.877Z,6.8
2023-11-12T00:27:08.275Z,6.8
2023-11-12T00:28:01.072Z,6.8
2023-11-12T00:28:59.789Z,6.8
2023-11-12T00:30:01.032Z,6.8
2023-11-12T00:30:59.702Z,6.8
2023-11-12T00:32:11.471Z,6.8
2023-11-12T00:33:01.151Z,6.8
2023-11-12T00:33:59.938Z,6.8
2023-11-12T00:34:58.630Z,6.9
2023-11-12T00:36:00.348Z,6.9
2023-11-12T00:37:13.142Z,6.9
2023-11-12T00:38:01.001Z,6.9
2023-11-12T00:38:59.756Z,6.9
2023-11-12T00:40:01.062Z,6.9
2023-11-12T00:40:59.803Z,6.9
2023-11-12T00:42:16.629Z,6.9
2023-11-12T00:43:01.028Z,6.9
2023-11-12T00:43:59.724Z,6.9
2023-11-12T00:45:00.942Z,6.9
2023-11-12T00:45:59.729Z,6.9
2023-11-12T00:47:01.080Z,6.9
2023-11-12T00:47:59.811Z,6.9
2023-11-12T00:49:01.050Z,6.9
2023-11-12T00:49:59.733Z,6.9
2023-11-12T00:51:01.085Z,6.9
2023-11-12T00:51:59.744Z,6.9
2023-11-12T00:53:00.993Z,6.9
2023-11-12T00:53:59.853Z,6.9
2023-11-12T00:55:01.380Z,6.9
2023-11-12T00:56:00.105Z,6.9
2023-11-12T00:56:58.857Z,6.9
2023-11-12T00:58:01.038Z,6.9
2023-11-12T00:58:59.687Z,6.9
2023-11-12T01:00:00.411Z,6.9
2023-11-12T01:00:59.111Z,6.9
2023-11-12T01:01:59.844Z,6.9
2023-11-12T01:03:01.147Z,6.9
2023-11-12T01:03:59.880Z,6.9
2023-11-12T01:04:58.612Z,6.9
2023-11-12T01:06:00.259Z,6.9
2023-11-12T01:06:58.917Z,6.9
2023-11-12T01:08:01.002Z,6.9
2023-11-12T01:08:59.639Z,6.9
2023-11-12T01:10:00.389Z,6.9
2023-11-12T01:10:59.106Z,6.9
2023-11-12T01:11:59.867Z,6.9
2023-11-12T01:13:01.031Z,6.9
2023-11-12T01:14:58.677Z,6.9
2023-11-12T01:16:00.424Z,6.9
2023-11-12T01:16:59.070Z,6.9
2023-11-12T01:17:59.805Z,6.8
2023-11-12T01:19:01.074Z,6.8
2023-11-12T01:19:59.814Z,6.9
2023-11-12T01:21:01.068Z,6.9
2023-11-12T01:21:59.958Z,6.9
2023-11-12T01:22:58.601Z,6.9
2023-11-12T01:24:00.252Z,6.9
2023-11-12T01:24:58.921Z,6.9
2023-11-12T01:26:00.986Z,6.9
2023-11-12T01:26:59.636Z,6.9
2023-11-12T01:28:00.287Z,6.9
2023-11-12T01:28:58.968Z,6.9
2023-11-12T01:29:59.779Z,7
2023-11-12T01:31:01.015Z,6.9
2023-11-12T01:31:59.719Z,7
2023-11-12T01:33:01.033Z,6.9
2023-11-12T01:33:59.692Z,7
2023-11-12T01:35:00.308Z,7
2023-11-12T01:35:59.290Z,6.9
2023-11-12T01:37:00.019Z,7
2023-11-12T01:37:58.706Z,7
2023-11-12T01:39:01.264Z,7
2023-11-12T01:39:59.953Z,6.9
2023-11-12T01:40:58.611Z,7
2023-11-12T01:42:00.269Z,7
2023-11-12T01:42:58.975Z,7
2023-11-12T01:43:59.777Z,7
2023-11-12T01:45:01.022Z,7
2023-11-12T01:46:00.114Z,7
2023-11-12T01:46:58.902Z,7
2023-11-12T01:48:01.486Z,7
2023-11-12T01:49:00.261Z,7
2023-11-12T01:49:58.974Z,7
2023-11-12T01:50:59.608Z,7
2023-11-12T01:52:00.328Z,7
2023-11-12T01:52:59.234Z,7
2023-11-12T01:54:00.063Z,7
2023-11-12T01:54:58.700Z,7
2023-11-12T01:56:00.434Z,7
2023-11-12T01:56:59.140Z,7
2023-11-12T01:58:02.699Z,7
2023-11-12T01:58:59.868Z,7
2023-11-12T02:00:01.007Z,6.9
2023-11-12T02:00:59.654Z,6.9
2023-11-12T02:02:00.414Z,6.9
2023-11-12T02:03:06.331Z,6.9
2023-11-12T02:04:00.220Z,6.9
2023-11-12T02:04:58.986Z,6.9
2023-11-12T02:05:59.712Z,6.9
2023-11-12T02:07:01.147Z,6.9
2023-11-12T02:08:06.874Z,6.9
2023-11-12T02:08:59.816Z,6.9
2023-11-12T02:10:00.982Z,6.9
2023-11-12T02:10:59.620Z,6.9
2023-11-12T02:12:00.357Z,7
2023-11-12T02:13:09.726Z,6.9
2023-11-12T02:14:00.685Z,7
2023-11-12T02:14:59.355Z,7
2023-11-12T02:16:00.064Z,7
2023-11-12T02:16:58.749Z,7
2023-11-12T02:18:13.584Z,7
2023-11-12T02:19:01.022Z,7
2023-11-12T02:19:59.692Z,7
2023-11-12T02:21:00.415Z,7
2023-11-12T02:21:59.080Z,7
2023-11-12T02:22:59.915Z,7
2023-11-12T02:24:01.110Z,7
2023-11-12T02:24:59.814Z,7
2023-11-12T02:26:00.954Z,7
2023-11-12T02:26:59.627Z,7
2023-11-12T02:28:00.367Z,7
2023-11-12T02:28:59.372Z,7
2023-11-12T02:30:00.103Z,7
2023-11-12T02:30:58.885Z,7.1
2023-11-12T02:31:59.670Z,7
2023-11-12T02:33:00.424Z,7
2023-11-12T02:33:59.063Z,7
2023-11-12T02:34:59.680Z,7.1
2023-11-12T02:36:00.413Z,7.1
2023-11-12T02:36:59.065Z,7
2023-11-12T02:37:59.728Z,7.1
2023-11-12T02:39:01.436Z,7
2023-11-12T02:40:00.159Z,7
2023-11-12T02:40:58.891Z,7
2023-11-12T02:42:00.969Z,7
2023-11-12T02:42:59.645Z,7
2023-11-12T02:44:00.401Z,7
2023-11-12T02:44:59.262Z,7
2023-11-12T02:45:59.990Z,7
2023-11-12T02:46:58.759Z,7
2023-11-12T02:48:01.188Z,7
2023-11-12T02:48:59.871Z,7
2023-11-12T02:50:01.014Z,7
2023-11-12T02:50:59.670Z,7
2023-11-12T02:52:00.311Z,7
2023-11-12T02:52:58.979Z,7
2023-11-12T02:53:59.978Z,7
2023-11-12T02:54:58.593Z,7
2023-11-12T02:56:00.360Z,7
2023-11-12T02:56:59.114Z,7
2023-11-12T02:57:59.826Z,7
2023-11-12T02:59:00.977Z,7
2023-11-12T02:59:59.645Z,7
2023-11-12T03:01:00.459Z,7
2023-11-12T03:01:59.249Z,7
2023-11-12T03:03:00.187Z,7
2023-11-12T03:03:58.993Z,7
2023-11-12T03:04:59.761Z,7
2023-11-12T03:06:00.968Z,7
2023-11-12T03:06:59.676Z,7
2023-11-12T03:08:00.638Z,7
2023-11-12T03:08:59.491Z,7
2023-11-12T03:10:00.263Z,7
2023-11-12T03:10:58.996Z,7
2023-11-12T03:11:59.719Z,7
2023-11-12T03:13:01.091Z,7
2023-11-12T03:13:59.842Z,7
2023-11-12T03:15:00.993Z,7
2023-11-12T03:15:59.644Z,7
2023-11-12T03:17:00.373Z,7
2023-11-12T03:17:59.050Z,7
2023-11-12T03:18:59.748Z,7
2023-11-12T03:20:01.052Z,6.9
2023-11-12T03:20:59.770Z,6.9
2023-11-12T03:22:01.011Z,6.9
2023-11-12T03:22:59.677Z,6.9
2023-11-12T03:24:00.374Z,6.9
2023-11-12T03:24:59.199Z,6.9
2023-11-12T03:25:59.906Z,6.9
2023-11-12T03:27:01.168Z,6.9
2023-11-12T03:27:59.809Z,6.9
2023-11-12T03:29:01.143Z,6.9
2023-11-12T03:29:59.837Z,6.9
2023-11-12T03:31:01.023Z,6.9
2023-11-12T03:31:59.850Z,6.9
2023-11-12T03:33:01.078Z,7
2023-11-12T03:34:02.031Z,7
2023-11-12T03:34:59.895Z,6.9
2023-11-12T03:36:01.003Z,6.9
2023-11-12T03:36:59.671Z,6.9
2023-11-12T03:38:00.395Z,6.9
2023-11-12T03:39:04.900Z,6.9
2023-11-12T03:40:00.102Z,6.9
2023-11-12T03:40:58.775Z,6.9
2023-11-12T03:42:00.527Z,6.9
2023-11-12T03:42:59.202Z,6.9
2023-11-12T03:44:08.885Z,6.9
2023-11-12T03:44:59.845Z,6.8
2023-11-12T03:46:00.994Z,6.8
2023-11-12T03:46:59.667Z,6.9
2023-11-12T03:48:00.425Z,6.9
2023-11-12T03:49:11.843Z,6.9
2023-11-12T03:50:00.992Z,6.9
2023-11-12T03:50:59.651Z,6.8
2023-11-12T03:52:00.388Z,6.8
2023-11-12T03:52:59.386Z,6.8
2023-11-12T03:54:14.671Z,6.8
2023-11-12T03:55:00.175Z,6.8
2023-11-12T03:55:58.872Z,6.8
2023-11-12T03:57:01.438Z,6.8
2023-11-12T03:58:00.026Z,6.8
2023-11-12T03:58:58.777Z,6.8
2023-11-12T04:00:01.074Z,6.8
2023-11-12T04:00:59.865Z,6.8
2023-11-12T04:02:01.126Z,6.8
2023-11-12T04:03:00.377Z,6.8
2023-11-12T04:03:59.222Z,6.8
2023-11-12T04:04:59.993Z,6.8
2023-11-12T04:05:58.725Z,6.8
2023-11-12T04:07:01.014Z,6.8
2023-11-12T04:07:59.659Z,6.8
2023-11-12T04:09:00.398Z,6.8
2023-11-12T04:09:59.015Z,6.8
2023-11-12T04:10:59.784Z,6.8
2023-11-12T04:12:01.038Z,6.8
2023-11-12T04:12:59.691Z,6.8
2023-11-12T04:14:00.444Z,6.8
2023-11-12T04:14:59.090Z,6.8
2023-11-12T04:15:59.871Z,6.8
2023-11-12T04:17:01.018Z,6.8
2023-11-12T04:17:59.764Z,6.8
2023-11-12T04:19:00.957Z,6.8
2023-11-12T04:19:59.646Z,6.8
2023-11-12T04:21:00.370Z,6.8
2023-11-12T04:21:59.033Z,6.8
2023-11-12T04:22:59.753Z,6.8
2023-11-12T04:24:00.498Z,6.8
2023-11-12T04:24:59.177Z,6.8
2023-11-12T04:25:59.890Z,6.8
2023-11-12T04:27:01.034Z,6.8
2023-11-12T04:27:59.912Z,6.8
2023-11-12T04:29:01.036Z,6.8
2023-11-12T04:29:59.709Z,6.7
2023-11-12T04:31:00.966Z,6.7
2023-11-12T04:31:59.724Z,6.7
2023-11-12T04:33:01.099Z,6.7
2023-11-12T04:33:59.827Z,6.7
2023-11-12T04:35:00.985Z,6.7
2023-11-12T04:35:59.759Z,6.7
2023-11-12T04:37:00.980Z,6.8
2023-11-12T04:37:59.642Z,6.8
2023-11-12T04:39:00.375Z,6.8
2023-11-12T04:39:59.053Z,6.8
2023-11-12T04:40:59.765Z,6.7
2023-11-12T04:42:01.018Z,6.7
2023-11-12T04:42:59.672Z,6.8
2023-11-12T04:44:00.401Z,6.7
2023-11-12T04:44:59.180Z,6.7
2023-11-12T04:45:59.996Z,6.7
2023-11-12T04:46:58.810Z,6.7
2023-11-12T04:48:01.097Z,6.7
2023-11-12T04:48:59.846Z,6.7
2023-11-12T04:50:00.956Z,6.7
2023-11-12T04:50:59.569Z,6.7
2023-11-12T04:52:00.239Z,6.7
2023-11-12T04:52:59.058Z,6.7
2023-11-12T04:53:59.708Z,6.7
2023-11-12T04:55:01.270Z,6.7
2023-11-12T04:55:59.974Z,6.7
2023-11-12T04:56:58.648Z,6.7
2023-11-12T04:58:00.286Z,6.8
2023-11-12T04:58:58.968Z,6.7
2023-11-12T04:59:59.640Z,6.7
2023-11-12T05:01:00.297Z,6.7
2023-11-12T05:01:59.012Z,6.7
2023-11-12T05:02:59.833Z,6.7
2023-11-12T05:04:01.073Z,6.7
2023-11-12T05:04:59.815Z,6.7
2023-11-12T05:06:01.056Z,6.7
2023-11-12T05:06:59.737Z,6.7
2023-11-12T05:08:01.004Z,6.7
2023-11-12T05:08:59.678Z,6.7
2023-11-12T05:10:00.954Z,6.8
2023-11-12T05:10:59.769Z,6.7
2023-11-12T05:12:01.393Z,6.8
2023-11-12T05:13:00.115Z,6.8
2023-11-12T05:13:58.850Z,6.8
2023-11-12T05:15:03.257Z,6.8
2023-11-12T05:16:01.034Z,6.8
2023-11-12T05:16:59.814Z,6.8
2023-11-12T05:18:01.107Z,6.8
2023-11-12T05:18:59.812Z,6.8
2023-11-12T05:20:05.932Z,6.8
2023-11-12T05:21:01.474Z,6.8
2023-11-12T05:21:59.967Z,6.8
2023-11-12T05:22:58.744Z,6.8
2023-11-12T05:24:00.969Z,6.8
2023-11-12T05:25:08.138Z,6.8
2023-11-12T05:26:00.225Z,6.8
2023-11-12T05:26:58.957Z,6.8
2023-11-12T05:27:59.657Z,6.8
2023-11-12T05:29:00.389Z,6.8
2023-11-12T05:30:10.185Z,6.8
2023-11-12T05:31:00.336Z,6.7
2023-11-12T05:31:59.070Z,6.8
2023-11-12T05:32:59.856Z,6.8
2023-11-12T05:34:01.172Z,6.8
2023-11-12T05:35:11.928Z,6.8
2023-11-12T05:35:59.823Z,6.7
2023-11-12T05:37:00.952Z,6.7
2023-11-12T05:37:59.634Z,6.7
2023-11-12T05:39:00.265Z,6.7
2023-11-12T05:40:13.692Z,6.7
2023-11-12T05:40:59.947Z,6.7
2023-11-12T05:41:58.666Z,6.7
2023-11-12T05:43:00.378Z,6.7
2023-11-12T05:43:59.064Z,6.7
2023-11-12T05:44:59.752Z,6.8
2023-11-12T05:46:01.028Z,6.7
2023-11-12T05:46:59.731Z,6.7
2023-11-12T05:48:01.053Z,6.7
2023-11-12T05:48:59.758Z,6.7
2023-11-12T05:50:01.052Z,6.7
2023-11-12T05:51:00.015Z,6.7
2023-11-12T05:51:58.686Z,6.7
2023-11-12T05:53:00.453Z,6.7
2023-11-12T05:53:59.113Z,6.7
2023-11-12T05:54:59.840Z,6.7
2023-11-12T05:56:00.970Z,6.7
2023-11-12T05:56:59.598Z,6.7
2023-11-12T05:58:00.251Z,6.7
2023-11-12T05:58:58.943Z,6.7
2023-11-12T05:59:59.654Z,6.7
2023-11-12T06:01:01.012Z,6.7
2023-11-12T06:01:59.728Z,6.7
2023-11-12T06:03:01.248Z,6.7
2023-11-12T06:04:00.132Z,6.7
2023-11-12T06:04:58.886Z,6.7
2023-11-12T06:06:01.073Z,6.7
2023-11-12T06:06:59.700Z,6.7
2023-11-12T06:08:00.436Z,6.8
2023-11-12T06:08:59.143Z,6.8
2023-11-12T06:09:59.785Z,6.8
2023-11-12T06:11:01.374Z,6.7
2023-11-12T06:12:00.044Z,6.7
2023-11-12T06:12:58.735Z,6.7
2023-11-12T06:14:01.000Z,6.7
2023-11-12T06:14:59.649Z,6.6
2023-11-12T06:16:00.370Z,6.6
2023-11-12T06:16:59.329Z,6.6
2023-11-12T06:18:00.043Z,6.6
2023-11-12T06:18:58.756Z,6.6
2023-11-12T06:20:01.055Z,6.6
2023-11-12T06:20:59.758Z,6.6
2023-11-12T06:22:01.081Z,6.6
2023-11-12T06:22:59.809Z,6.6
2023-11-12T06:24:01.052Z,6.6
2023-11-12T06:24:59.717Z,6.6
2023-11-12T06:26:01.074Z,6.6
2023-11-12T06:27:00.069Z,6.6
2023-11-12T06:27:58.716Z,6.6
2023-11-12T06:29:01.214Z,6.6
2023-11-12T06:29:59.850Z,6.6
2023-11-12T06:31:01.005Z,6.6
2023-11-12T06:31:59.674Z,6.6
2023-11-12T06:33:00.606Z,6.7
2023-11-12T06:33:59.410Z,6.6
2023-11-12T06:35:00.055Z,6.7
2023-11-12T06:35:58.715Z,6.6
2023-11-12T06:37:01.416Z,6.6
2023-11-12T06:37:59.897Z,6.6
2023-11-12T06:39:00.960Z,6.7
2023-11-12T06:39:59.607Z,6.7
2023-11-12T06:41:00.977Z,6.6
2023-11-12T06:41:59.616Z,6.7
2023-11-12T06:43:00.339Z,6.7
2023-11-12T06:43:59.018Z,6.7
2023-11-12T06:44:59.868Z,6.7
2023-11-12T06:46:01.114Z,6.7
2023-11-12T06:46:59.799Z,6.6
2023-11-12T06:48:01.009Z,6.6
2023-11-12T06:48:59.776Z,6.6
2023-11-12T06:50:01.022Z,6.6
2023-11-12T06:50:59.738Z,6.6
2023-11-12T06:52:02.788Z,6.6
2023-11-12T06:53:01.207Z,6.6
2023-11-12T06:53:59.909Z,6.6
2023-11-12T06:55:01.064Z,6.6
2023-11-12T06:55:59.710Z,6.6
2023-11-12T06:57:01.057Z,6.6
2023-11-12T06:57:59.919Z,6.6
2023-11-12T06:59:00.973Z,6.6
2023-11-12T06:59:59.993Z,6.6
2023-11-12T07:01:01.507Z,6.6
2023-11-12T07:02:00.173Z,6.7
2023-11-12T07:02:58.940Z,6.7
2023-11-12T07:03:59.718Z,6.7
2023-11-12T07:05:01.007Z,6.7
2023-11-12T07:06:03.804Z,6.6
2023-11-12T07:07:09.129Z,6.7
2023-11-12T07:08:01.089Z,6.7
2023-11-12T07:08:59.841Z,6.6
2023-11-12T07:10:01.134Z,6.6
2023-11-12T07:11:04.929Z,6.6
2023-11-12T07:11:59.809Z,6.6
2023-11-12T07:13:00.955Z,6.6
2023-11-12T07:13:59.665Z,6.6
2023-11-12T07:15:00.334Z,6.7
2023-11-12T07:16:07.506Z,6.6
2023-11-12T07:17:00.058Z,6.6
2023-11-12T07:17:58.732Z,6.6
2023-11-12T07:19:01.079Z,6.6
2023-11-12T07:19:59.764Z,6.6
2023-11-12T07:21:09.584Z,6.6
2023-11-12T07:21:59.987Z,6.6
2023-11-12T07:22:58.674Z,6.6
2023-11-12T07:24:00.919Z,6.6
2023-11-12T07:25:01.433Z,6.6
2023-11-12T07:26:11.088Z,6.6
2023-11-12T07:27:00.345Z,6.6
2023-11-12T07:27:59.053Z,6.6
2023-11-12T07:28:59.702Z,6.7
2023-11-12T07:30:01.008Z,6.7
2023-11-12T07:31:13.243Z,6.7
2023-11-12T07:32:00.999Z,6.7
2023-11-12T07:32:59.638Z,6.7
2023-11-12T07:34:00.354Z,6.7
2023-11-12T07:34:59.151Z,6.7
2023-11-12T07:36:14.952Z,6.7
2023-11-12T07:36:59.928Z,6.7
2023-11-12T07:38:01.413Z,6.8
2023-11-12T07:39:00.085Z,6.7
2023-11-12T07:39:58.768Z,6.8
2023-11-12T07:41:01.051Z,6.7
2023-11-12T07:41:59.713Z,6.7
2023-11-12T07:43:01.063Z,6.7
2023-11-12T07:43:59.708Z,6.8
2023-11-12T07:45:06.982Z,6.7
2023-11-12T07:45:59.914Z,6.8
2023-11-12T07:46:58.621Z,6.7
2023-11-12T07:48:00.393Z,6.7
2023-11-12T07:48:59.127Z,6.7
2023-11-12T07:49:59.852Z,6.7
2023-11-12T07:51:01.011Z,6.7
2023-11-12T07:51:59.656Z,6.7
2023-11-12T07:53:01.011Z,6.8
2023-11-12T07:53:59.703Z,6.8
2023-11-12T07:55:01.036Z,6.8
2023-11-12T07:55:59.698Z,6.8
2023-11-12T07:57:01.032Z,6.8
2023-11-12T07:57:59.693Z,6.8
2023-11-12T07:59:01.084Z,6.8
2023-11-12T07:59:59.826Z,6.8
2023-11-12T08:01:01.444Z,6.8
2023-11-12T08:02:00.086Z,6.8
2023-11-12T08:02:58.827Z,6.8
2023-11-12T08:04:01.029Z,6.8
2023-11-12T08:04:59.861Z,6.8
2023-11-12T08:06:00.962Z,6.8
2023-11-12T08:06:59.650Z,6.8
2023-11-12T08:08:01.390Z,6.8
2023-11-12T08:09:00.092Z,6.8
2023-11-12T08:09:58.765Z,6.8
2023-11-12T08:11:01.310Z,6.9
2023-11-12T08:11:59.994Z,6.8
2023-11-12T08:12:58.662Z,6.9
2023-11-12T08:14:00.349Z,6.9
2023-11-12T08:14:58.988Z,6.9
2023-11-12T08:15:59.793Z,6.9
2023-11-12T08:17:00.955Z,6.9
2023-11-12T08:17:59.648Z,6.9
2023-11-12T08:19:01.372Z,6.9
2023-11-12T08:20:00.059Z,6.9
2023-11-12T08:20:58.692Z,6.9
2023-11-12T08:22:00.373Z,7
2023-11-12T08:22:59.046Z,7
2023-11-12T08:23:59.787Z,7
2023-11-12T08:25:01.027Z,7
2023-11-12T08:26:02.247Z,7
2023-11-12T08:26:59.698Z,7
2023-11-12T08:28:01.425Z,7
2023-11-12T08:29:00.234Z,7
2023-11-12T08:29:58.923Z,7.1
2023-11-12T08:31:01.149Z,7.1
2023-11-12T08:31:59.854Z,7.1
2023-11-12T08:33:01.161Z,7.1
2023-11-12T08:33:59.822Z,7.1
2023-11-12T08:35:00.965Z,7.1
2023-11-12T08:35:59.705Z,7.1
2023-11-12T08:37:01.697Z,7.1
2023-11-12T08:38:00.176Z,7.1
2023-11-12T08:38:59.369Z,7.1
2023-11-12T08:40:00.318Z,7.1
2023-11-12T08:40:59.064Z,7.1
2023-11-12T08:41:59.890Z,7.1
2023-11-12T08:43:01.021Z,7.2
2023-11-12T08:43:59.902Z,7.2
2023-11-12T08:45:01.343Z,7.2
2023-11-12T08:46:00.071Z,7.2
2023-11-12T08:46:58.923Z,7.2
2023-11-12T08:47:59.622Z,7.2
2023-11-12T08:49:00.755Z,7.2
2023-11-12T08:49:59.517Z,7.2
2023-11-12T08:51:00.347Z,7.2
2023-11-12T08:51:59.134Z,7.2
2023-11-12T08:52:59.942Z,7.2
2023-11-12T08:53:58.624Z,7.2
2023-11-12T08:55:00.289Z,7.2
2023-11-12T08:55:58.953Z,7.2
2023-11-12T08:56:59.685Z,7.2
2023-11-12T08:58:01.053Z,7.2
2023-11-12T08:58:59.784Z,7.2
2023-11-12T09:00:01.028Z,7.2
2023-11-12T09:00:59.758Z,7.2
2023-11-12T09:02:01.077Z,7.3
2023-11-12T09:02:59.892Z,7.3
2023-11-12T09:03:58.648Z,7.2
2023-11-12T09:05:00.339Z,7.3
2023-11-12T09:05:59.020Z,7.3
2023-11-12T09:06:59.767Z,7.3
2023-11-12T09:08:00.993Z,7.3
2023-11-12T09:08:59.794Z,7.3
2023-11-12T09:10:01.099Z,7.3
2023-11-12T09:10:59.754Z,7.3
2023-11-12T09:12:02.005Z,7.2
2023-11-12T09:13:01.041Z,7.2
2023-11-12T09:13:59.776Z,7.2
2023-11-12T09:15:01.042Z,7.2
2023-11-12T09:15:59.722Z,7.2
2023-11-12T09:17:04.272Z,7.2
2023-11-12T09:17:59.933Z,7.2
2023-11-12T09:18:58.643Z,7.3
2023-11-12T09:20:00.397Z,7.3
2023-11-12T09:20:59.089Z,7.3
2023-11-12T09:22:07.315Z,7.3
2023-11-12T09:22:59.742Z,7.3
2023-11-12T09:24:01.038Z,7.3
2023-11-12T09:25:08.961Z,7.3
2023-11-12T09:26:00.188Z,7.3
2023-11-12T09:27:09.153Z,7.3
2023-11-12T09:27:59.886Z,7.3
2023-11-12T09:29:01.018Z,7.3
2023-11-12T09:29:59.668Z,7.3
2023-11-12T09:31:00.991Z,7.3
2023-11-12T09:32:10.766Z,7.3
2023-11-12T09:32:59.907Z,7.3
2023-11-12T09:33:58.742Z,7.3
2023-11-12T09:35:01.054Z,7.3
2023-11-12T09:35:59.708Z,7.3
2023-11-12T09:37:15.301Z,7.3
2023-11-12T09:37:59.960Z,7.3
2023-11-12T09:38:58.580Z,7.3
2023-11-12T09:40:00.359Z,7.3
2023-11-12T09:40:59.015Z,7.3
2023-11-12T09:41:59.660Z,7.3
2023-11-12T09:43:00.341Z,7.3
2023-11-12T09:43:59.059Z,7.3
2023-11-12T09:45:00.217Z,7.3
2023-11-12T09:45:58.949Z,7.3
2023-11-12T09:46:59.842Z,7.4
2023-11-12T09:48:01.194Z,7.4
2023-11-12T09:48:59.955Z,7.4
2023-11-12T09:49:58.675Z,7.4
2023-11-12T09:51:01.091Z,7.4
2023-11-12T09:51:59.826Z,7.5
2023-11-12T09:53:01.373Z,7.5
2023-11-12T09:53:59.923Z,7.5
2023-11-12T09:55:00.963Z,7.5
2023-11-12T09:55:59.590Z,7.5
2023-11-12T09:57:06.430Z,7.6
2023-11-12T09:57:59.773Z,7.6
2023-11-12T09:59:01.012Z,7.6
2023-11-12T09:59:59.651Z,7.6
2023-11-12T10:01:01.392Z,7.6
2023-11-12T10:01:59.954Z,7.6
2023-11-12T10:02:58.962Z,7.6
2023-11-12T10:03:59.768Z,7.6
2023-11-12T10:05:01.085Z,7.6
2023-11-12T10:05:59.808Z,7.6
2023-11-12T10:07:01.556Z,7.6
2023-11-12T10:08:00.622Z,7.6
2023-11-12T10:08:59.266Z,7.6
2023-11-12T10:09:59.931Z,7.6
2023-11-12T10:11:00.969Z,7.6
2023-11-12T10:11:59.632Z,7.7
2023-11-12T10:13:00.989Z,7.7
2023-11-12T10:13:59.755Z,7.8
2023-11-12T10:15:01.062Z,7.8
2023-11-12T10:15:59.895Z,7.8
2023-11-12T10:16:58.632Z,7.8
2023-11-12T10:18:02.252Z,7.8
2023-11-12T10:19:00.318Z,7.8
2023-11-12T10:19:58.979Z,7.8
2023-11-12T10:20:59.687Z,7.8
2023-11-12T10:22:01.080Z,7.9
2023-11-12T10:22:59.848Z,7.9
2023-11-12T10:24:02.334Z,8
2023-11-12T10:25:00.892Z,8
2023-11-12T10:25:59.832Z,8
2023-11-12T10:27:00.976Z,8
2023-11-12T10:27:59.798Z,8
2023-11-12T10:29:01.215Z,8
2023-11-12T10:29:59.963Z,8
2023-11-12T10:30:58.783Z,8.1
2023-11-12T10:32:01.074Z,8.1
2023-11-12T10:33:00.029Z,8.1
2023-11-12T10:33:58.910Z,8.1
2023-11-12T10:34:59.651Z,8.1
2023-11-12T10:36:00.314Z,8.1
2023-11-12T10:36:59.031Z,8.1
2023-11-12T10:37:59.733Z,8.1
2023-11-12T10:39:00.976Z,8.2
2023-11-12T10:39:59.743Z,8.1
2023-11-12T10:41:01.069Z,8.1
2023-11-12T10:41:59.730Z,8.1
2023-11-12T10:43:01.240Z,8.1
2023-11-12T10:44:00.150Z,8.1
2023-11-12T10:44:58.907Z,8.1
2023-11-12T10:46:00.167Z,8.1
2023-11-12T10:46:59.152Z,8.1
2023-11-12T10:48:00.170Z,8.1
2023-11-12T10:48:59.001Z,8.1
2023-11-12T10:49:59.890Z,8.1
2023-11-12T10:51:01.074Z,8.1
2023-11-12T10:52:00.256Z,8.1
2023-11-12T10:53:01.319Z,8.1
2023-11-12T10:54:00.241Z,8.1
2023-11-12T10:54:59.524Z,8.2
2023-11-12T10:56:00.972Z,8.2
2023-11-12T10:56:59.730Z,8.2
2023-11-12T10:58:04.996Z,8.1
2023-11-12T10:59:01.181Z,8.1
2023-11-12T10:59:59.940Z,8.1
2023-11-12T11:00:59.162Z,8.1
2023-11-12T11:02:00.333Z,8.1
2023-11-12T11:03:06.421Z,8.1
2023-11-12T11:04:01.075Z,8.1
2023-11-12T11:04:59.869Z,8.1
2023-11-12T11:06:01.591Z,8.1
2023-11-12T11:07:00.341Z,8.1
2023-11-12T11:08:09.643Z,8.2
2023-11-12T11:09:00.252Z,8.2
2023-11-12T11:09:59.221Z,8.2
2023-11-12T11:11:00.097Z,8.2
2023-11-12T11:11:58.922Z,8.3
2023-11-12T11:13:11.983Z,8.2
2023-11-12T11:14:00.875Z,8.3
2023-11-12T11:14:59.709Z,8.3
2023-11-12T11:16:01.038Z,8.3
2023-11-12T11:16:59.839Z,8.2
2023-11-12T11:18:13.943Z,8.2
2023-11-12T11:19:01.379Z,8.2
2023-11-12T11:19:59.895Z,8.2
2023-11-12T11:21:01.296Z,8.2
2023-11-12T11:22:00.407Z,8.2
2023-11-12T11:22:59.172Z,8.3
2023-11-12T11:23:59.832Z,8.2
2023-11-12T11:25:01.076Z,8.3
2023-11-12T11:25:59.830Z,8.3
2023-11-12T11:27:00.952Z,8.3
2023-11-12T11:27:59.721Z,8.3
2023-11-12T11:29:01.062Z,8.3
2023-11-12T11:29:59.835Z,8.3
2023-11-12T11:31:01.376Z,8.3
2023-11-12T11:32:00.228Z,8.3
2023-11-12T11:32:59.211Z,8.3
2023-11-12T11:34:00.094Z,8.3
2023-11-12T11:34:58.854Z,8.3
2023-11-12T11:36:00.981Z,8.2
2023-11-12T11:36:59.847Z,8.3
2023-11-12T11:38:01.663Z,8.2
2023-11-12T11:39:01.262Z,8.2
2023-11-12T11:40:00.307Z,8.2
2023-11-12T11:40:59.083Z,8.2
2023-11-12T11:41:59.913Z,8.2
2023-11-12T11:43:01.087Z,8.2
2023-11-12T11:43:59.834Z,8.2
2023-11-12T11:45:01.066Z,8.2
2023-11-12T11:45:59.985Z,8.2
2023-11-12T11:46:58.742Z,8.2
2023-11-12T11:48:00.968Z,8.2
2023-11-12T11:48:59.820Z,8.2
2023-11-12T11:50:01.126Z,8.2
2023-11-12T11:51:01.279Z,8.2
2023-11-12T11:51:59.923Z,8.2
2023-11-12T11:52:58.655Z,8.2
2023-11-12T11:54:00.418Z,8.2
2023-11-12T11:54:59.109Z,8.2
2023-11-12T11:55:59.807Z,8.2
2023-11-12T11:57:00.969Z,8.2
2023-11-12T11:57:59.683Z,8.2
2023-11-12T11:59:01.160Z,8.2
2023-11-12T12:00:00.067Z,8.2
2023-11-12T12:00:58.891Z,8.2
2023-11-12T12:01:59.680Z,8.2
2023-11-12T12:03:01.176Z,8.2
2023-11-12T12:03:59.930Z,8.2
2023-11-12T12:04:59.256Z,8.2
2023-11-12T12:06:00.269Z,8.2
2023-11-12T12:06:58.951Z,8.2
2023-11-12T12:07:59.781Z,8.3
2023-11-12T12:09:01.065Z,8.2
2023-11-12T12:10:01.002Z,8.3
2023-11-12T12:10:59.713Z,8.3
2023-11-12T12:12:01.047Z,8.3
2023-11-12T12:13:00.143Z,8.3
2023-11-12T12:13:58.871Z,8.3
2023-11-12T12:15:01.069Z,8.3
2023-11-12T12:15:59.929Z,8.3
2023-11-12T12:16:58.725Z,8.3
2023-11-12T12:18:01.432Z,8.3
2023-11-12T12:19:00.253Z,8.3
2023-11-12T12:19:59.038Z,8.3
2023-11-12T12:20:59.930Z,8.3
2023-11-12T12:21:58.808Z,8.3
2023-11-12T12:23:01.111Z,8.3
2023-11-12T12:24:00.197Z,8.3
2023-11-12T12:24:58.915Z,8.4
2023-11-12T12:25:59.614Z,8.4
2023-11-12T12:27:00.288Z,8.4
2023-11-12T12:27:58.986Z,8.4
2023-11-12T12:28:59.830Z,8.4
2023-11-12T12:30:01.050Z,8.4
2023-11-12T12:31:00.084Z,8.4
2023-11-12T12:31:59.367Z,8.4
2023-11-12T12:33:00.295Z,8.5
2023-11-12T12:33:59.070Z,8.5
2023-11-12T12:34:59.906Z,8.5
2023-11-12T12:36:01.233Z,8.5
2023-11-12T12:37:00.007Z,8.5
2023-11-12T12:37:58.872Z,8.5
2023-11-12T12:39:01.039Z,8.5
2023-11-12T12:40:01.694Z,8.5
2023-11-12T12:40:59.865Z,8.5
2023-11-12T12:42:00.963Z,8.5
2023-11-12T12:42:59.735Z,8.5
2023-11-12T12:44:01.197Z,8.5
2023-11-12T12:44:59.959Z,8.5
2023-11-12T12:45:58.969Z,8.5
2023-11-12T12:46:59.741Z,8.5
2023-11-12T12:48:01.053Z,8.5
2023-11-12T12:49:03.413Z,8.5
2023-11-12T12:50:01.021Z,8.5
2023-11-12T12:50:59.738Z,8.5
2023-11-12T12:52:01.141Z,8.5
2023-11-12T12:52:59.857Z,8.5
2023-11-12T12:54:06.956Z,8.5
2023-11-12T12:55:01.044Z,8.5
2023-11-12T12:55:59.604Z,8.5
2023-11-12T12:57:00.249Z,8.5
2023-11-12T12:57:58.927Z,8.5
2023-11-12T12:59:08.317Z,8.5
2023-11-12T12:59:59.741Z,8.5
2023-11-12T13:01:01.144Z,8.5
2023-11-12T13:01:59.997Z,8.5
2023-11-12T13:02:58.869Z,8.5
2023-11-12T13:04:10.026Z,8.5
2023-11-12T13:05:01.017Z,8.5
2023-11-12T13:05:59.735Z,8.5
2023-11-12T13:07:01.199Z,8.5
2023-11-12T13:07:59.962Z,8.5
2023-11-12T13:09:10.937Z,8.5
2023-11-12T13:10:01.611Z,8.5
2023-11-12T13:10:59.657Z,8.5
2023-11-12T13:12:00.475Z,8.5
2023-11-12T13:12:59.196Z,8.5
2023-11-12T13:14:13.392Z,8.5
2023-11-12T13:14:59.887Z,8.5
2023-11-12T13:16:01.159Z,8.5
2023-11-12T13:16:59.906Z,8.5
2023-11-12T13:18:02.293Z,8.5
2023-11-12T13:19:15.673Z,8.5
2023-11-12T13:20:00.056Z,8.5
2023-11-12T13:20:58.823Z,8.5
2023-11-12T13:22:03.346Z,8.5
2023-11-12T13:23:01.491Z,8.5
2023-11-12T13:24:00.246Z,8.5
2023-11-12T13:24:59.025Z,8.5
2023-11-12T13:25:59.944Z,8.5
2023-11-12T13:26:58.645Z,8.5
2023-11-12T13:28:00.308Z,8.5
2023-11-12T13:28:59.129Z,8.5
2023-11-12T13:30:00.468Z,8.5
2023-11-12T13:30:59.373Z,8.5
2023-11-12T13:32:00.258Z,8.5
2023-11-12T13:32:59.153Z,8.5
2023-11-12T13:34:00.140Z,8.5
2023-11-12T13:34:59.499Z,8.5
2023-11-12T13:36:00.273Z,8.5
2023-11-12T13:36:58.966Z,8.5
2023-11-12T13:37:59.623Z,8.5
2023-11-12T13:39:00.579Z,8.5
2023-11-12T13:39:59.250Z,8.5
2023-11-12T13:40:59.967Z,8.5
2023-11-12T13:41:58.630Z,8.5
2023-11-12T13:43:01.145Z,8.5
2023-11-12T13:43:59.782Z,8.5
2023-11-12T13:45:01.009Z,8.5
2023-11-12T13:46:00.374Z,8.5
2023-11-12T13:46:59.071Z,8.5
2023-11-12T13:47:59.752Z,8.5
2023-11-12T13:49:03.716Z,8.5
2023-11-12T13:50:00.043Z,8.5
2023-11-12T13:50:59.015Z,8.6
2023-11-12T13:51:59.675Z,8.6
2023-11-12T13:53:00.336Z,8.6
2023-11-12T13:53:59.026Z,8.6
2023-11-12T13:54:59.938Z,8.6